KFFA

First Flight Airport

Kill Devil Hills, North Carolina, USA
METAR KFFA 151600Z AUTO 00000KT 1/4SM -DZ OVC003 17/17 A2995 RMK AO2 T01660166
Observed Flight Rules
Dec-15 @ 16:00 UTC (18 minutes ago) Instrument Flight Rules
Visibility Clouds Conditions
1/4 miles
  • Overcast at 300' AGL
  • Light Drizzle
Temperatures Readings
Current 17°C / 63°F
Dewpoint 17°C / 63°F
Humidity 100%
Altimeter 29.95" Hg
Pressure 1014 hPa
Elevation 4
METAR KFFA 151600Z AUTO 00000KT 1/4SM -DZ OVC003 17/17 A2995 RMK AO2 T01660166
Observed Flight Rules
Dec-15 @ 16:00 UTC
(18 minutes ago)
LIFR
Clouds
  • Overcast at 300' AGL
Conditions
  • Light Drizzle
Temperature Dewpoint
17°C / 63°F 17°C / 63°F
Humidity Altimeter Pressure
100% 29.95" Hg 1014 hPa